Time;durP1;ratioP1;P1;durP2;ratioP2;P2;SDS_P1;SDS_P2;PMS_P1;PMS_P2;Temp;Humidity;BMP_temperature;BMP_pressure;BME280_temperature;BME280_humidity;BME280_pressure;Samples;Min_cycle;Max_cycle;Signal;HPM_P1;HPM_P2
2022/09/14 00:01:23;;;;;;;2.17;2.00;;;18.50;99.90;;;;;;5050156;28;20487;-68
2022/09/14 00:03:52;;;;;;;2.03;1.83;;;18.50;99.90;;;;;;5050114;28;20866;-69
2022/09/14 00:06:19;;;;;;;2.70;2.40;;;18.50;99.90;;;;;;5050168;28;20494;-69
2022/09/14 00:08:49;;;;;;;2.13;1.93;;;18.40;99.90;;;;;;5049752;28;20491;-69
2022/09/14 00:11:16;;;;;;;3.90;1.90;;;18.50;99.90;;;;;;5050473;28;20558;-68
2022/09/14 00:13:45;;;;;;;2.30;1.83;;;18.40;99.90;;;;;;5049868;28;20844;-69
2022/09/14 00:16:17;;;;;;;2.90;1.93;;;18.40;99.90;;;;;;5049964;28;20468;-69
2022/09/14 00:18:44;;;;;;;1.93;1.70;;;18.40;99.90;;;;;;5049089;28;20649;-69
2022/09/14 00:21:12;;;;;;;2.10;1.93;;;18.40;99.90;;;;;;5049405;28;20488;-69
2022/09/14 00:23:41;;;;;;;3.10;2.30;;;18.50;99.90;;;;;;5049337;28;20533;-69
2022/09/14 00:26:10;;;;;;;1.77;1.67;;;18.50;99.90;;;;;;5049735;28;20569;-68
2022/09/14 00:28:38;;;;;;;2.03;1.83;;;18.50;99.90;;;;;;5048914;28;20563;-68
2022/09/14 00:31:07;;;;;;;2.60;1.57;;;18.50;99.90;;;;;;5049790;28;21255;-68
2022/09/14 00:33:34;;;;;;;2.37;2.17;;;18.50;99.90;;;;;;5050218;28;20490;-68
2022/09/14 00:36:07;;;;;;;4.33;1.90;;;18.40;99.90;;;;;;5049710;28;20469;-68
2022/09/14 00:38:34;;;;;;;2.63;2.27;;;18.40;99.90;;;;;;5048996;28;20526;-69
2022/09/14 00:41:02;;;;;;;2.23;2.03;;;18.40;99.90;;;;;;5049214;28;20522;-69
2022/09/14 00:43:29;;;;;;;2.27;2.07;;;18.40;99.90;;;;;;5049554;28;20495;-69
2022/09/14 00:45:56;;;;;;;2.50;2.30;;;18.40;99.90;;;;;;5049319;28;20485;-69
2022/09/14 00:48:25;;;;;;;2.20;1.87;;;18.40;99.90;;;;;;5048715;28;20566;-69
2022/09/14 00:50:53;;;;;;;1.97;1.77;;;18.40;99.90;;;;;;5050701;28;20455;-69
2022/09/14 00:53:20;;;;;;;1.73;1.57;;;18.40;99.90;;;;;;5052232;28;20484;-69
2022/09/14 00:55:47;;;;;;;2.10;1.90;;;18.40;99.90;;;;;;5115754;22;21020;-69
2022/09/14 00:58:14;;;;;;;2.27;1.80;;;18.40;99.90;;;;;;5051076;28;20459;-69
2022/09/14 01:00:41;;;;;;;2.20;2.00;;;18.40;99.90;;;;;;5051880;28;20621;-69
2022/09/14 01:03:08;;;;;;;2.43;2.23;;;18.40;99.90;;;;;;5051842;28;20994;-69
2022/09/14 01:05:50;;;;;;;2.20;2.00;;;18.40;99.90;;;;;;5051842;28;21107;-69
2022/09/14 01:08:28;;;;;;;2.40;1.90;;;18.40;99.90;;;;;;5050891;28;20486;-69
2022/09/14 01:11:07;;;;;;;2.83;2.17;;;18.40;99.90;;;;;;5051746;28;20464;-69
2022/09/14 01:13:41;;;;;;;2.27;2.07;;;18.30;99.90;;;;;;5051179;28;20483;-69
2022/09/14 01:16:17;;;;;;;3.10;2.20;;;18.40;99.90;;;;;;5051966;28;20464;-69
2022/09/14 01:18:47;;;;;;;2.67;1.93;;;18.40;99.90;;;;;;5051012;28;20978;-69
2022/09/14 01:21:24;;;;;;;2.23;1.80;;;18.40;99.90;;;;;;5051116;28;21002;-69
2022/09/14 01:23:59;;;;;;;3.10;2.57;;;18.40;99.90;;;;;;5051853;28;20491;-68
2022/09/14 01:27:11;;;;;;;4.30;1.80;;;18.30;99.90;;;;;;5051145;28;20460;-68
2022/09/14 01:29:42;;;;;;;2.20;2.00;;;18.10;99.90;;;;;;5050594;28;20460;-67
2022/09/14 01:32:15;;;;;;;1.87;1.53;;;17.90;99.90;;;;;;5049859;28;20460;-68
2022/09/14 01:34:46;;;;;;;2.80;1.63;;;17.70;99.90;;;;;;5051621;28;20460;-68
2022/09/14 01:37:18;;;;;;;2.03;1.73;;;17.70;99.90;;;;;;5051316;28;20864;-68
2022/09/14 01:39:49;;;;;;;3.60;1.93;;;17.60;99.90;;;;;;5050813;28;21062;-68
2022/09/14 01:42:20;;;;;;;1.70;1.40;;;17.50;99.90;;;;;;5051107;28;21002;-68
2022/09/14 01:44:56;;;;;;;2.53;2.00;;;17.50;99.90;;;;;;5051395;28;20506;-68
2022/09/14 01:47:30;;;;;;;2.80;2.27;;;17.50;99.90;;;;;;5051441;28;20467;-68
2022/09/14 01:50:02;;;;;;;2.50;2.00;;;17.50;99.90;;;;;;5050360;28;20574;-68
2022/09/14 01:52:34;;;;;;;2.43;2.20;;;17.50;99.90;;;;;;5050877;28;20511;-68
2022/09/14 01:55:06;;;;;;;3.50;2.13;;;17.50;99.90;;;;;;5050798;28;20476;-67
2022/09/14 01:57:37;;;;;;;6.00;2.60;;;17.50;99.90;;;;;;5050801;28;20460;-68
2022/09/14 02:00:09;;;;;;;2.43;2.23;;;17.50;99.90;;;;;;5050277;28;20470;-68
2022/09/14 02:02:40;;;;;;;3.00;2.10;;;17.50;99.90;;;;;;5050659;28;20572;-68
2022/09/14 02:05:10;;;;;;;3.30;3.00;;;17.50;99.90;;;;;;5050918;28;20492;-68
2022/09/14 02:07:38;;;;;;;2.73;2.33;;;17.50;99.90;;;;;;5034602;28;20465;-68
2022/09/14 02:10:08;;;;;;;2.73;2.53;;;17.50;99.90;;;;;;5013221;28;20495;-68
2022/09/14 02:12:36;;;;;;;3.23;2.17;;;17.50;99.90;;;;;;5010904;28;20844;-68
2022/09/14 02:15:05;;;;;;;4.07;2.73;;;17.50;99.90;;;;;;5011375;28;20469;-68
2022/09/14 02:17:31;;;;;;;2.50;2.30;;;17.50;99.90;;;;;;5010643;28;20468;-68
2022/09/14 02:20:01;;;;;;;3.70;2.47;;;17.50;99.90;;;;;;5010549;28;20502;-68
2022/09/14 02:22:29;;;;;;;2.90;2.20;;;17.50;99.90;;;;;;5010113;28;20493;-68
2022/09/14 02:24:57;;;;;;;2.50;2.30;;;17.50;99.90;;;;;;5011292;28;20841;-68
2022/09/14 02:27:24;;;;;;;4.60;2.50;;;17.50;99.90;;;;;;5010940;28;20469;-67
2022/09/14 02:29:53;;;;;;;3.47;2.37;;;17.50;99.90;;;;;;5010164;28;20504;-67
2022/09/14 02:32:26;;;;;;;3.20;2.20;;;17.50;99.90;;;;;;5010807;28;20458;-67
2022/09/14 02:35:02;;;;;;;2.40;2.20;;;17.50;99.90;;;;;;5010815;28;20593;-70
2022/09/14 02:37:39;;;;;;;2.83;2.57;;;17.40;99.90;;;;;;5010717;28;20956;-70
2022/09/14 02:40:23;;;;;;;3.10;2.47;;;17.40;99.90;;;;;;5010077;28;20465;-69
2022/09/14 02:43:00;;;;;;;2.70;2.50;;;17.40;99.90;;;;;;5010790;28;20496;-71
2022/09/14 02:45:34;;;;;;;3.13;2.37;;;17.40;99.90;;;;;;5010780;28;20465;-69
2022/09/14 02:48:06;;;;;;;3.77;2.37;;;17.40;99.90;;;;;;5010663;28;20457;-70
2022/09/14 02:50:40;;;;;;;2.70;2.47;;;17.40;99.90;;;;;;5010351;28;20470;-70
2022/09/14 02:53:12;;;;;;;2.77;2.57;;;17.40;99.90;;;;;;5010398;28;20564;-69
2022/09/14 02:55:45;;;;;;;3.37;2.80;;;17.40;99.90;;;;;;5010520;28;20957;-70
2022/09/14 02:58:14;;;;;;;5.93;2.40;;;17.40;99.90;;;;;;5010027;28;20476;-70
2022/09/14 03:00:45;;;;;;;2.70;2.30;;;17.40;99.90;;;;;;5010521;28;20469;-70
2022/09/14 03:03:15;;;;;;;3.07;2.87;;;17.40;99.90;;;;;;5010178;28;20992;-70
2022/09/14 03:05:42;;;;;;;2.70;2.50;;;17.40;99.90;;;;;;5010491;28;20470;-69
2022/09/14 03:08:10;;;;;;;2.70;2.50;;;17.40;99.90;;;;;;5010294;28;20516;-70
2022/09/14 03:10:37;;;;;;;2.70;2.50;;;17.40;99.90;;;;;;5010029;28;20464;-68
2022/09/14 03:13:04;;;;;;;3.03;2.57;;;17.40;99.90;;;;;;5010492;28;21005;-68
2022/09/14 03:15:31;;;;;;;3.27;2.77;;;17.40;99.90;;;;;;5010061;28;20875;-69
2022/09/14 03:17:59;;;;;;;4.13;2.63;;;17.40;99.90;;;;;;5010584;28;20539;-70
2022/09/14 03:20:28;;;;;;;2.97;2.67;;;17.40;99.90;;;;;;5009865;28;20883;-70
2022/09/14 03:22:55;;;;;;;3.23;2.87;;;17.40;99.90;;;;;;5009987;28;20494;-69
2022/09/14 03:25:22;;;;;;;3.10;2.80;;;17.40;99.90;;;;;;5010404;28;20461;-70
2022/09/14 03:27:50;;;;;;;2.80;2.30;;;17.30;99.90;;;;;;5010117;28;20545;-70
2022/09/14 03:30:17;;;;;;;3.27;2.70;;;17.30;99.90;;;;;;5009675;28;20473;-70
2022/09/14 03:32:44;;;;;;;4.97;4.43;;;17.30;99.90;;;;;;5011908;28;20478;-70
2022/09/14 03:35:12;;;;;;;3.30;3.00;;;17.30;99.90;;;;;;5016022;28;20826;-70
2022/09/14 03:37:40;;;;;;;2.60;2.40;;;17.30;99.90;;;;;;5030875;28;20456;-68
2022/09/14 03:40:08;;;;;;;2.90;2.60;;;17.30;99.90;;;;;;5030445;28;20456;-67
2022/09/14 03:42:35;;;;;;;2.70;2.50;;;17.20;99.90;;;;;;5030564;28;20859;-68
2022/09/14 03:45:02;;;;;;;2.77;2.57;;;17.20;99.90;;;;;;5030610;28;20910;-67
2022/09/14 03:47:30;;;;;;;3.40;3.10;;;17.20;99.90;;;;;;5030280;28;20469;-67
2022/09/14 03:49:56;;;;;;;6.73;2.87;;;17.10;99.90;;;;;;5029556;28;20913;-67
2022/09/14 03:52:24;;;;;;;3.20;2.90;;;17.10;99.90;;;;;;5032176;28;20464;-68
2022/09/14 03:54:51;;;;;;;3.87;2.80;;;17.10;99.90;;;;;;5033620;28;20836;-67
2022/09/14 03:57:18;;;;;;;3.70;3.40;;;17.10;99.90;;;;;;5033046;28;20540;-68
2022/09/14 03:59:45;;;;;;;3.03;2.67;;;17.10;99.90;;;;;;5032708;28;20472;-68
2022/09/14 04:02:12;;;;;;;6.30;3.47;;;17.10;99.90;;;;;;5032987;28;20488;-68
2022/09/14 04:04:39;;;;;;;3.83;3.03;;;17.10;99.90;;;;;;5033272;28;20555;-70
2022/09/14 04:07:06;;;;;;;2.83;2.60;;;17.10;99.90;;;;;;5033206;28;20489;-68
2022/09/14 04:09:34;;;;;;;3.53;2.90;;;17.10;99.90;;;;;;5032352;28;20469;-68
2022/09/14 04:12:01;;;;;;;3.13;2.63;;;17.20;99.90;;;;;;5024108;28;20963;-70
2022/09/14 04:14:27;;;;;;;3.60;2.90;;;17.20;99.90;;;;;;5021598;28;20485;-69
2022/09/14 04:16:54;;;;;;;3.23;2.37;;;17.30;99.90;;;;;;5023169;28;20457;-69
2022/09/14 04:19:21;;;;;;;4.03;2.87;;;17.20;99.90;;;;;;5022501;28;20462;-69
2022/09/14 04:21:47;;;;;;;2.63;2.30;;;17.20;99.90;;;;;;5020619;28;20901;-70
2022/09/14 04:24:14;;;;;;;3.50;2.83;;;17.30;99.90;;;;;;5021945;28;20499;-70
2022/09/14 04:26:43;;;;;;;3.10;2.67;;;17.30;99.90;;;;;;5019697;28;20466;-70
2022/09/14 04:29:11;;;;;;;3.50;3.20;;;17.30;99.90;;;;;;5012182;28;20850;-69
2022/09/14 04:31:38;;;;;;;2.60;2.40;;;17.30;99.90;;;;;;5012247;28;20474;-70
2022/09/14 04:34:05;;;;;;;2.93;2.60;;;17.30;99.90;;;;;;5012988;28;20496;-70
2022/09/14 04:36:32;;;;;;;3.90;3.20;;;17.30;99.90;;;;;;5012310;28;20512;-69
2022/09/14 04:39:00;;;;;;;3.80;2.60;;;17.30;99.90;;;;;;5012431;28;20983;-70
2022/09/14 04:41:28;;;;;;;3.10;2.73;;;17.40;99.90;;;;;;5012808;28;20468;-70
2022/09/14 04:43:57;;;;;;;2.77;2.47;;;17.40;99.90;;;;;;5011609;28;20497;-70
2022/09/14 04:46:26;;;;;;;3.43;2.70;;;17.40;99.90;;;;;;5012640;28;20466;-70
2022/09/14 04:48:53;;;;;;;3.17;2.97;;;17.40;99.90;;;;;;5011894;28;20462;-70
2022/09/14 04:51:21;;;;;;;3.23;3.00;;;17.40;99.90;;;;;;5012492;28;20466;-70
2022/09/14 04:53:50;;;;;;;3.23;2.93;;;17.50;99.90;;;;;;5012448;28;20481;-70
2022/09/14 04:56:18;;;;;;;3.23;2.93;;;17.50;99.90;;;;;;5012446;28;20476;-70
2022/09/14 04:58:47;;;;;;;2.40;2.20;;;17.50;99.90;;;;;;5011812;28;20486;-70
2022/09/14 05:01:17;;;;;;;2.70;2.50;;;17.50;99.90;;;;;;5012432;28;20462;-70
2022/09/14 05:03:44;;;;;;;2.77;2.57;;;17.50;99.90;;;;;;5012347;28;20497;-70
2022/09/14 05:06:13;;;;;;;3.23;2.90;;;17.50;99.90;;;;;;5012228;28;20473;-70
2022/09/14 05:08:40;;;;;;;3.43;3.10;;;17.50;99.90;;;;;;5011930;28;20548;-70
2022/09/14 05:11:08;;;;;;;3.47;3.17;;;17.50;99.90;;;;;;5012467;28;20466;-69
2022/09/14 05:13:36;;;;;;;4.83;2.70;;;17.60;99.90;;;;;;5011693;28;20477;-70
2022/09/14 05:16:07;;;;;;;4.10;3.70;;;17.60;99.90;;;;;;5012294;28;20512;-70
2022/09/14 05:18:35;;;;;;;3.43;3.13;;;17.60;99.90;;;;;;5011012;28;20816;-70
2022/09/14 05:21:03;;;;;;;3.60;3.20;;;17.60;99.90;;;;;;5012119;28;20466;-69
2022/09/14 05:23:29;;;;;;;3.93;3.30;;;17.60;99.90;;;;;;5011783;28;20485;-70
2022/09/14 05:25:56;;;;;;;3.80;3.50;;;17.60;99.90;;;;;;5012099;28;20473;-70
2022/09/14 05:28:23;;;;;;;3.60;3.30;;;17.70;99.90;;;;;;5011340;28;20461;-70
2022/09/14 05:30:50;;;;;;;3.53;3.10;;;17.70;99.90;;;;;;5011680;28;20469;-69
2022/09/14 05:33:16;;;;;;;4.20;3.80;;;17.80;99.90;;;;;;5011913;28;20477;-70
2022/09/14 05:35:44;;;;;;;4.00;3.57;;;17.80;99.90;;;;;;5011723;28;20462;-70
2022/09/14 05:38:11;;;;;;;3.80;3.50;;;17.80;99.90;;;;;;5011484;28;20831;-70
2022/09/14 05:40:38;;;;;;;4.37;3.97;;;17.90;99.90;;;;;;5011274;28;20477;-70
2022/09/14 05:43:04;;;;;;;3.50;3.13;;;17.90;99.90;;;;;;5011669;28;20903;-69
2022/09/14 05:45:32;;;;;;;4.07;3.67;;;17.90;99.90;;;;;;5011630;28;20878;-69
2022/09/14 05:48:03;;;;;;;3.53;3.23;;;18.00;99.90;;;;;;5011444;28;20469;-70
2022/09/14 05:50:30;;;;;;;5.87;3.60;;;18.00;99.90;;;;;;5011327;28;20458;-70
2022/09/14 05:52:58;;;;;;;4.27;3.87;;;18.00;99.90;;;;;;5011157;28;20629;-70
2022/09/14 05:55:25;;;;;;;3.87;3.57;;;18.00;99.90;;;;;;5011496;28;20469;-70
2022/09/14 05:57:52;;;;;;;4.60;3.50;;;18.10;99.90;;;;;;5011413;28;20468;-70
2022/09/14 06:00:20;;;;;;;3.10;2.90;;;18.20;99.90;;;;;;5010774;28;20466;-70
2022/09/14 06:02:48;;;;;;;5.83;3.43;;;18.20;99.90;;;;;;5011285;28;20498;-70
2022/09/14 06:05:15;;;;;;;3.57;3.27;;;18.20;99.90;;;;;;5011179;28;20465;-68
2022/09/14 06:07:41;;;;;;;3.73;3.43;;;18.30;99.90;;;;;;5011360;28;20462;-68
2022/09/14 06:10:10;;;;;;;4.07;3.77;;;18.20;99.90;;;;;;5010609;28;20973;-68
2022/09/14 06:12:37;;;;;;;4.40;3.30;;;18.30;99.90;;;;;;5011068;28;20478;-68
2022/09/14 06:15:05;;;;;;;3.73;3.43;;;18.20;99.90;;;;;;5011386;28;20466;-68
2022/09/14 06:17:31;;;;;;;7.47;3.10;;;18.30;99.90;;;;;;5010704;28;20954;-68
2022/09/14 06:19:58;;;;;;;4.93;3.10;;;18.30;99.90;;;;;;5010723;28;20832;-68
2022/09/14 06:22:25;;;;;;;3.53;3.23;;;18.40;99.90;;;;;;5010330;28;20498;-68
2022/09/14 06:24:52;;;;;;;3.43;3.20;;;18.40;99.90;;;;;;5011150;28;20461;-68
2022/09/14 06:27:21;;;;;;;3.57;3.27;;;18.40;99.90;;;;;;5010600;28;20442;-68
2022/09/14 06:29:50;;;;;;;3.50;3.20;;;18.50;99.90;;;;;;5010531;28;20520;-68
2022/09/14 06:32:17;;;;;;;3.73;3.43;;;18.50;99.90;;;;;;5010708;28;20808;-68
2022/09/14 06:34:44;;;;;;;3.40;3.10;;;18.60;99.90;;;;;;5010655;28;20469;-67
2022/09/14 06:37:11;;;;;;;3.40;3.10;;;18.60;99.90;;;;;;5011020;28;20501;-68
2022/09/14 06:39:38;;;;;;;4.77;3.60;;;18.60;99.90;;;;;;5009886;28;20466;-68
2022/09/14 06:42:05;;;;;;;3.60;3.30;;;18.60;99.90;;;;;;5010953;28;20484;-67
2022/09/14 06:44:33;;;;;;;3.30;3.00;;;18.70;99.90;;;;;;5010403;28;21014;-68
2022/09/14 06:47:00;;;;;;;4.20;3.43;;;18.70;99.90;;;;;;5011065;28;20461;-68
2022/09/14 06:49:26;;;;;;;3.57;3.27;;;18.70;99.90;;;;;;5009563;28;20465;-70
2022/09/14 06:51:55;;;;;;;4.50;3.40;;;18.70;99.90;;;;;;5010848;28;20960;-70
2022/09/14 06:56:57;;;;;;;3.30;2.90;;;18.90;99.90;;;;;;5048276;28;20471;-67
2022/09/14 06:59:23;;;;;;;4.57;3.53;;;18.90;99.90;;;;;;5049715;28;20467;-67
2022/09/14 07:01:51;;;;;;;3.37;3.10;;;18.90;99.90;;;;;;5049840;28;20466;-67
2022/09/14 07:04:18;;;;;;;3.13;2.83;;;18.90;99.90;;;;;;5050108;28;20492;-67
2022/09/14 07:06:47;;;;;;;4.10;3.60;;;19.00;99.90;;;;;;5050212;28;20460;-67
2022/09/14 07:09:15;;;;;;;3.00;2.67;;;19.00;99.90;;;;;;5053276;28;20464;-67
2022/09/14 07:11:42;;;;;;;3.90;3.60;;;19.00;99.90;;;;;;5054043;28;20467;-67
2022/09/14 07:14:10;;;;;;;4.20;3.63;;;19.10;99.90;;;;;;5054056;28;20476;-67
2022/09/14 07:16:38;;;;;;;4.20;3.80;;;19.10;99.90;;;;;;5054110;28;20460;-67
2022/09/14 07:19:09;;;;;;;3.60;3.30;;;19.10;99.90;;;;;;5053355;28;20476;-67
2022/09/14 07:21:36;;;;;;;3.80;3.40;;;19.10;99.90;;;;;;5054255;28;20870;-67
2022/09/14 07:24:03;;;;;;;3.20;3.00;;;19.20;99.90;;;;;;5053993;28;20484;-66
2022/09/14 07:26:32;;;;;;;3.70;3.40;;;19.20;99.90;;;;;;5053740;28;20521;-67
2022/09/14 07:29:02;;;;;;;3.70;3.30;;;19.30;99.90;;;;;;5046765;28;20468;-67
2022/09/14 07:31:31;;;;;;;3.03;2.83;;;19.40;99.90;;;;;;5051600;28;21022;-67
2022/09/14 07:34:02;;;;;;;3.90;3.60;;;19.40;99.90;;;;;;5051785;28;20512;-67
2022/09/14 07:36:31;;;;;;;3.80;3.50;;;19.50;99.90;;;;;;5051235;28;20488;-67
2022/09/14 07:38:59;;;;;;;3.47;3.17;;;19.50;99.90;;;;;;5050687;28;21020;-66
2022/09/14 07:41:28;;;;;;;3.60;2.93;;;19.60;99.90;;;;;;5051579;28;20456;-67
2022/09/14 07:43:59;;;;;;;5.67;3.40;;;19.70;99.90;;;;;;5051042;28;20481;-67
2022/09/14 07:46:26;;;;;;;4.40;3.43;;;19.70;99.90;;;;;;5051868;28;20471;-66
2022/09/14 07:48:56;;;;;;;3.20;2.90;;;19.80;99.90;;;;;;5050197;28;20464;-67
2022/09/14 07:51:24;;;;;;;3.20;2.90;;;19.90;99.90;;;;;;5051801;28;20480;-67
2022/09/14 07:53:52;;;;;;;3.90;3.60;;;20.00;99.90;;;;;;5050588;28;20481;-66
2022/09/14 07:56:20;;;;;;;3.80;3.50;;;20.10;99.90;;;;;;5051455;28;20511;-66
2022/09/14 07:58:47;;;;;;;3.67;3.37;;;20.20;99.90;;;;;;5050414;28;20486;-67
2022/09/14 08:01:17;;;;;;;4.03;3.60;;;20.20;99.90;;;;;;5051413;28;20483;-66
2022/09/14 08:03:47;;;;;;;3.20;2.83;;;20.30;99.90;;;;;;5051075;28;20518;-67
2022/09/14 08:06:16;;;;;;;4.70;3.20;;;20.40;99.90;;;;;;5050462;28;20463;-67
2022/09/14 08:08:46;;;;;;;3.30;2.90;;;20.50;99.90;;;;;;5048242;28;20469;-66
2022/09/14 08:11:16;;;;;;;3.73;2.77;;;20.70;99.90;;;;;;5053194;28;20561;-67
2022/09/14 08:13:44;;;;;;;3.80;3.07;;;20.80;99.90;;;;;;5051750;28;20498;-67
2022/09/14 08:16:12;;;;;;;4.50;3.03;;;21.00;99.90;;;;;;5052087;28;20467;-67
2022/09/14 08:18:39;;;;;;;3.50;3.20;;;21.10;99.90;;;;;;5045947;28;20475;-67
2022/09/14 08:21:08;;;;;;;3.57;3.27;;;21.10;99.90;;;;;;5052553;28;20483;-67
2022/09/14 08:23:36;;;;;;;3.20;2.83;;;21.20;99.90;;;;;;5057914;28;20487;-67
2022/09/14 08:26:04;;;;;;;3.17;2.87;;;21.20;99.90;;;;;;5052951;28;20455;-67
2022/09/14 08:28:32;;;;;;;4.40;2.90;;;21.30;99.90;;;;;;5052150;28;20503;-67
2022/09/14 08:31:04;;;;;;;5.00;3.37;;;21.20;99.90;;;;;;5051330;28;20531;-67
2022/09/14 08:33:32;;;;;;;2.87;2.57;;;21.10;99.90;;;;;;5052146;28;20487;-67
2022/09/14 08:35:58;;;;;;;3.73;3.43;;;21.10;99.90;;;;;;5052079;28;20476;-67
2022/09/14 08:38:25;;;;;;;2.80;2.60;;;21.10;99.90;;;;;;5051729;28;20982;-67
2022/09/14 08:40:52;;;;;;;2.60;2.40;;;21.20;99.90;;;;;;5051852;28;20461;-66
2022/09/14 08:43:21;;;;;;;3.30;3.03;;;21.20;99.90;;;;;;5051779;28;20524;-67
2022/09/14 08:45:52;;;;;;;3.63;3.00;;;21.10;99.90;;;;;;5052335;28;20466;-67
2022/09/14 08:48:25;;;;;;;4.13;3.07;;;21.00;99.90;;;;;;5051274;28;20465;-67
2022/09/14 08:50:52;;;;;;;3.33;3.03;;;20.90;99.90;;;;;;5052212;28;20467;-66
2022/09/14 08:53:21;;;;;;;3.20;2.90;;;20.80;99.90;;;;;;5051816;28;20479;-67
2022/09/14 08:55:51;;;;;;;2.70;2.50;;;20.80;99.90;;;;;;5051226;28;20470;-67
2022/09/14 08:58:27;;;;;;;3.73;2.83;;;20.80;99.90;;;;;;5052028;28;20478;-67
2022/09/14 09:01:02;;;;;;;2.50;2.30;;;20.80;99.90;;;;;;5051385;28;20466;-66
2022/09/14 09:03:48;;;;;;;3.70;2.90;;;21.00;99.90;;;;;;5051721;28;20497;-67
2022/09/14 09:06:18;;;;;;;2.97;2.77;;;21.10;99.90;;;;;;5051471;28;20863;-66
2022/09/14 09:08:54;;;;;;;3.23;2.93;;;21.30;99.90;;;;;;5051132;28;20473;-67
2022/09/14 09:11:26;;;;;;;2.93;2.57;;;21.40;99.90;;;;;;5051587;28;20962;-67
2022/09/14 09:13:54;;;;;;;2.77;2.57;;;21.70;99.90;;;;;;5051590;28;20483;-67
2022/09/14 09:16:25;;;;;;;4.97;2.87;;;21.90;99.90;;;;;;5051753;28;20467;-67
2022/09/14 09:18:57;;;;;;;3.73;2.67;;;22.10;99.90;;;;;;5050099;28;20464;-67
2022/09/14 09:21:28;;;;;;;2.37;2.17;;;22.20;99.90;;;;;;5052053;28;20463;-66
2022/09/14 09:23:55;;;;;;;2.93;2.63;;;22.40;99.90;;;;;;5051060;28;20492;-67
2022/09/14 09:26:29;;;;;;;3.23;2.90;;;22.60;99.90;;;;;;5051737;28;20510;-67
2022/09/14 09:28:59;;;;;;;2.57;2.37;;;22.80;99.90;;;;;;5050501;28;20478;-67
2022/09/14 09:31:33;;;;;;;2.50;2.30;;;22.90;99.90;;;;;;5051020;28;20463;-67
2022/09/14 09:34:01;;;;;;;3.93;2.60;;;23.00;99.90;;;;;;5051046;28;20483;-67
2022/09/14 09:36:35;;;;;;;2.63;2.33;;;23.20;99.90;;;;;;5051486;28;20479;-67
2022/09/14 09:39:02;;;;;;;2.70;2.50;;;23.30;99.90;;;;;;5051059;28;20538;-67
2022/09/14 09:41:35;;;;;;;3.00;2.67;;;23.30;99.90;;;;;;5050667;28;20455;-67
2022/09/14 09:44:05;;;;;;;2.90;2.27;;;23.40;99.90;;;;;;5050850;28;20500;-67
2022/09/14 09:46:37;;;;;;;2.60;2.40;;;23.60;99.90;;;;;;5050951;28;20460;-67
2022/09/14 09:49:15;;;;;;;2.40;2.20;;;23.70;99.90;;;;;;5050560;28;20471;-67
2022/09/14 09:51:42;;;;;;;2.93;2.63;;;23.70;99.90;;;;;;5050687;28;20464;-67
2022/09/14 09:54:23;;;;;;;2.47;2.23;;;23.70;99.90;;;;;;5050933;28;20538;-67
2022/09/14 09:56:55;;;;;;;3.70;2.60;;;23.70;99.90;;;;;;5050242;28;20854;-67
2022/09/14 09:59:28;;;;;;;2.23;2.03;;;23.80;99.90;;;;;;5049975;28;20468;-67
2022/09/14 10:02:13;;;;;;;2.47;2.27;;;23.80;99.90;;;;;;5050762;28;20494;-67
2022/09/14 10:04:56;;;;;;;2.90;2.53;;;24.00;99.90;;;;;;5050339;28;20865;-67
2022/09/14 10:07:23;;;;;;;2.40;2.30;;;24.00;99.90;;;;;;5050885;28;20463;-67
2022/09/14 10:09:58;;;;;;;3.17;2.77;;;23.90;99.90;;;;;;5064502;28;20458;-67
2022/09/14 10:12:25;;;;;;;2.60;2.40;;;24.00;99.90;;;;;;5070623;28;20890;-67
2022/09/14 10:15:16;;;;;;;2.30;2.20;;;24.10;99.90;;;;;;5070316;28;20455;-67
2022/09/14 10:18:15;;;;;;;2.93;2.73;;;24.00;99.90;;;;;;5070144;28;21068;-67
2022/09/14 10:20:44;;;;;;;2.70;2.50;;;24.00;99.90;;;;;;5069972;28;20467;-67
2022/09/14 10:23:23;;;;;;;2.47;2.20;;;23.90;99.90;;;;;;5070104;28;21101;-68
2022/09/14 10:25:51;;;;;;;3.10;2.80;;;23.80;99.90;;;;;;5061819;28;20897;-67
2022/09/14 10:28:24;;;;;;;2.70;2.07;;;23.90;99.90;;;;;;5049107;28;20966;-67
2022/09/14 10:30:56;;;;;;;2.50;2.30;;;23.80;99.90;;;;;;5049978;28;20497;-67
2022/09/14 10:33:24;;;;;;;2.70;2.50;;;23.80;99.90;;;;;;5049130;28;20484;-67
2022/09/14 10:35:57;;;;;;;2.87;2.37;;;23.90;99.90;;;;;;5049933;28;20459;-67
2022/09/14 10:38:31;;;;;;;2.60;2.40;;;23.90;99.90;;;;;;5065390;28;20466;-67
2022/09/14 10:41:11;;;;;;;4.07;2.57;;;23.80;99.90;;;;;;5057852;28;20498;-67
2022/09/14 10:44:06;;;;;;;2.93;2.10;;;23.80;99.90;;;;;;5048756;28;20886;-67
2022/09/14 10:46:42;;;;;;;3.20;2.30;;;23.70;99.90;;;;;;5048592;28;20475;-67
2022/09/14 10:49:23;;;;;;;4.33;2.33;;;23.60;99.90;;;;;;5049261;28;20466;-67
2022/09/14 10:52:00;;;;;;;2.67;2.33;;;23.50;99.90;;;;;;5049022;28;20983;-68
2022/09/14 10:54:57;;;;;;;2.67;2.47;;;23.40;99.90;;;;;;5049643;28;20477;-68
2022/09/14 10:57:34;;;;;;;3.27;2.60;;;23.50;99.90;;;;;;5046165;28;20966;-67
2022/09/14 11:00:06;;;;;;;2.70;2.50;;;23.50;99.90;;;;;;5048760;28;20464;-67
2022/09/14 11:03:03;;;;;;;3.00;2.43;;;23.60;99.90;;;;;;5048998;28;20567;-67
2022/09/14 11:05:36;;;;;;;2.40;2.10;;;23.60;99.90;;;;;;5049224;28;20550;-67
2022/09/14 11:08:21;;;;;;;2.20;2.00;;;23.70;99.90;;;;;;5048582;28;20468;-67
2022/09/14 11:11:03;;;;;;;3.67;2.40;;;23.80;99.90;;;;;;5049379;28;20525;-67
2022/09/14 11:13:56;;;;;;;3.30;3.00;;;23.90;99.90;;;;;;5049344;28;20489;-67
2022/09/14 11:17:01;;;;;;;3.40;2.70;;;24.20;99.90;;;;;;5049583;28;20988;-67
2022/09/14 11:19:38;;;;;;;3.70;2.60;;;24.50;99.90;;;;;;5049038;28;20942;-67
2022/09/14 11:22:12;;;;;;;1.77;1.67;;;24.70;99.90;;;;;;5048520;28;20838;-67
2022/09/14 11:24:44;;;;;;;2.17;2.07;;;24.90;99.90;;;;;;5049534;28;20491;-67
2022/09/14 11:27:17;;;;;;;3.17;2.47;;;25.00;99.90;;;;;;5048801;28;20459;-67
2022/09/14 11:29:49;;;;;;;2.33;2.13;;;24.90;99.90;;;;;;5048661;28;20607;-68
2022/09/14 11:32:21;;;;;;;3.00;2.13;;;25.00;99.90;;;;;;5048496;28;21040;-67
2022/09/14 11:34:54;;;;;;;3.00;2.07;;;24.80;99.90;;;;;;5048867;28;20460;-67
2022/09/14 11:37:30;;;;;;;1.70;1.60;;;24.70;99.90;;;;;;5049919;28;20801;-67
2022/09/14 11:40:05;;;;;;;2.73;2.10;;;24.70;99.90;;;;;;5048812;28;20499;-67
2022/09/14 11:42:35;;;;;;;2.40;2.20;;;24.90;99.90;;;;;;5050167;28;20902;-67
2022/09/14 11:45:06;;;;;;;3.70;2.20;;;25.10;99.90;;;;;;5049647;28;21002;-67
2022/09/14 11:47:39;;;;;;;2.30;1.53;;;25.10;99.90;;;;;;5049988;28;20459;-67
2022/09/14 11:50:16;;;;;;;3.27;2.10;;;25.10;99.90;;;;;;5049442;28;20464;-67
2022/09/14 11:52:44;;;;;;;2.73;1.80;;;25.00;99.90;;;;;;5050331;28;20487;-67
2022/09/14 11:55:18;;;;;;;4.07;1.60;;;24.70;99.90;;;;;;5053606;28;20468;-67
2022/09/14 11:57:46;;;;;;;2.17;1.97;;;24.60;99.90;;;;;;5053487;28;20463;-67
2022/09/14 12:00:44;;;;;;;2.43;1.80;;;24.40;99.90;;;;;;5053078;28;20517;-67
2022/09/14 12:03:17;;;;;;;2.47;2.27;;;24.30;99.90;;;;;;5053296;28;20476;-67
2022/09/14 12:05:45;;;;;;;2.00;1.80;;;24.20;99.90;;;;;;5053286;28;20480;-67
2022/09/14 12:08:38;;;;;;;2.63;2.20;;;24.10;99.90;;;;;;5052520;28;20959;-67
2022/09/14 12:11:27;;;;;;;2.00;1.80;;;24.10;99.90;;;;;;5049494;28;20955;-67
2022/09/14 12:14:29;;;;;;;3.20;2.23;;;24.00;99.90;;;;;;5052571;28;20475;-67
2022/09/14 12:17:17;;;;;;;3.00;2.20;;;23.90;99.90;;;;;;5051107;28;20459;-67
2022/09/14 12:19:46;;;;;;;1.90;1.80;;;23.80;99.90;;;;;;5052379;28;20535;-67
2022/09/14 12:22:30;;;;;;;3.33;2.47;;;23.80;99.90;;;;;;5053334;28;20488;-68
2022/09/14 12:25:01;;;;;;;1.90;1.70;;;23.70;99.90;;;;;;5052636;28;20483;-67
2022/09/14 12:27:31;;;;;;;3.87;2.40;;;23.70;99.90;;;;;;5053097;28;20460;-67
2022/09/14 12:29:58;;;;;;;4.27;2.63;;;23.70;99.90;;;;;;5052223;28;20802;-67
2022/09/14 12:32:28;;;;;;;2.63;1.97;;;23.60;99.90;;;;;;5052818;28;20487;-66
2022/09/14 12:35:32;;;;;;;2.10;1.90;;;23.60;99.90;;;;;;5052491;28;20456;-67
2022/09/14 12:37:59;;;;;;;2.40;2.20;;;23.50;99.90;;;;;;5052816;28;20471;-67
2022/09/14 12:40:36;;;;;;;2.10;1.90;;;23.40;99.90;;;;;;5051853;28;20489;-67
2022/09/14 12:43:46;;;;;;;2.10;1.90;;;23.20;99.90;;;;;;5052829;28;20511;-67
2022/09/14 12:46:45;;;;;;;2.03;1.83;;;23.10;99.90;;;;;;5052452;28;20484;-67
2022/09/14 12:49:25;;;;;;;1.53;1.43;;;22.80;99.90;;;;;;5052186;28;20464;-66
2022/09/14 12:51:52;;;;;;;1.93;1.60;;;22.70;99.90;;;;;;5052359;28;20463;-67
2022/09/14 12:54:30;;;;;;;2.70;1.80;;;22.50;99.90;;;;;;5051271;28;21002;-67
2022/09/14 12:57:15;;;;;;;2.10;1.83;;;22.30;99.90;;;;;;5123456;22;20495;-66
2022/09/14 12:59:50;;;;;;;3.30;2.30;;;22.20;99.90;;;;;;5036442;28;20887;-66
2022/09/14 13:02:49;;;;;;;3.73;2.10;;;22.00;99.90;;;;;;5032456;28;20468;-66
2022/09/14 13:05:21;;;;;;;2.40;2.20;;;21.90;99.90;;;;;;5031967;28;20493;-66
2022/09/14 13:07:48;;;;;;;3.73;2.37;;;21.80;99.90;;;;;;5032544;28;20474;-66
2022/09/14 13:10:19;;;;;;;2.13;1.90;;;21.70;99.90;;;;;;5031815;28;20473;-66
2022/09/14 13:12:48;;;;;;;2.50;2.30;;;21.50;99.90;;;;;;5032173;28;20488;-66